Time;durP1;ratioP1;P1;durP2;ratioP2;P2;SDS_P1;SDS_P2;PMS_P1;PMS_P2;Temp;Humidity;BMP_temperature;BMP_pressure;BME280_temperature;BME280_humidity;BME280_pressure;Samples;Min_cycle;Max_cycle;Signal;HPM_P1;HPM_P2
2023/12/24 00:00:03;;;;;;;3.07;1.00;;;;;;;11.84;70.66;100305.28;6066989;23;20238;-81
2023/12/24 00:02:33;;;;;;;3.00;0.77;;;;;;;11.84;69.98;100310.59;6067301;23;20753;-82
2023/12/24 00:05:01;;;;;;;3.10;0.60;;;;;;;11.81;70.29;100311.75;6067899;23;20236;-81
2023/12/24 00:07:28;;;;;;;3.93;0.97;;;;;;;11.82;70.66;100312.56;6069502;23;20203;-82
2023/12/24 00:09:56;;;;;;;2.93;0.80;;;;;;;11.85;70.44;100312.25;6068423;23;20258;-83
2023/12/24 00:12:24;;;;;;;1.77;0.80;;;;;;;11.85;70.33;100333.53;6067792;23;20326;-83
2023/12/24 00:14:53;;;;;;;2.03;0.83;;;;;;;11.86;70.58;100321.91;6066309;23;20234;-82
2023/12/24 00:17:21;;;;;;;2.40;0.80;;;;;;;11.89;70.63;100313.59;6067292;23;20219;-83
2023/12/24 00:19:50;;;;;;;2.83;0.80;;;;;;;11.89;70.44;100308.28;6066634;23;20207;-83
2023/12/24 00:22:18;;;;;;;2.90;0.83;;;;;;;11.89;70.46;100310.94;6067659;23;20548;-83
2023/12/24 00:24:46;;;;;;;1.33;0.53;;;;;;;11.84;70.60;100299.97;6066390;23;20208;-79
2023/12/24 00:27:14;;;;;;;1.90;0.83;;;;;;;11.84;70.55;100292.00;6067522;23;20198;-82
2023/12/24 00:29:41;;;;;;;2.93;0.83;;;;;;;11.84;70.85;100286.69;6066975;23;20219;-84
2023/12/24 00:32:09;;;;;;;2.10;0.53;;;;;;;11.84;71.09;100279.56;6064184;23;20191;-84
2023/12/24 00:34:37;;;;;;;2.77;0.90;;;;;;;11.83;71.34;100293.81;6062777;23;20191;-82
2023/12/24 00:37:06;;;;;;;1.43;0.67;;;;;;;11.81;70.79;100274.53;6063770;23;20235;-83
2023/12/24 00:39:34;;;;;;;2.23;0.90;;;;;;;11.83;71.09;100277.03;6063808;23;20212;-84
2023/12/24 00:42:02;;;;;;;2.13;0.90;;;;;;;11.84;71.21;100274.25;6064987;23;20183;-80
2023/12/24 00:44:30;;;;;;;3.47;0.90;;;;;;;11.84;71.52;100263.59;6063891;23;20248;-85
2023/12/24 00:46:58;;;;;;;4.20;0.80;;;;;;;11.84;71.28;100265.44;6065278;23;20548;-82
2023/12/24 00:49:28;;;;;;;2.93;1.00;;;;;;;11.85;71.44;100264.44;6064238;23;20275;-85
2023/12/24 00:51:57;;;;;;;1.50;0.83;;;;;;;11.83;71.22;100255.78;6067205;23;20732;-84
2023/12/24 00:54:26;;;;;;;2.93;1.07;;;;;;;11.80;71.27;100261.41;6063687;23;20195;-83
2023/12/24 00:56:54;;;;;;;2.70;0.80;;;;;;;11.76;71.38;100262.75;6064636;23;20760;-85
2023/12/24 00:59:22;;;;;;;2.07;0.80;;;;;;;11.81;71.34;100265.75;6063610;23;20318;-85
2023/12/24 01:01:50;;;;;;;1.37;0.70;;;;;;;11.83;71.73;100261.09;6063191;23;20961;-83
2023/12/24 01:04:18;;;;;;;2.00;1.00;;;;;;;11.80;71.29;100250.78;6062245;23;20250;-84
2023/12/24 01:06:45;;;;;;;2.33;1.00;;;;;;;11.81;71.63;100245.31;6062874;23;20192;-83
2023/12/24 01:09:16;;;;;;;4.27;0.70;;;;;;;11.79;71.26;100254.44;6064897;23;20172;-81
2023/12/24 01:11:45;;;;;;;2.83;1.10;;;;;;;11.79;71.40;100249.97;6063158;23;20265;-83
2023/12/24 01:14:12;;;;;;;2.07;1.03;;;;;;;11.80;71.08;100232.19;6062639;23;20191;-85
2023/12/24 01:16:40;;;;;;;1.70;0.70;;;;;;;11.83;71.35;100247.81;6062794;23;20262;-84
2023/12/24 01:19:08;;;;;;;2.00;0.70;;;;;;;11.80;71.34;100235.69;6063193;23;20207;-84
2023/12/24 01:21:36;;;;;;;3.07;0.90;;;;;;;11.83;70.96;100235.38;6065006;23;20188;-82
2023/12/24 01:24:05;;;;;;;2.30;1.00;;;;;;;11.81;70.52;100242.66;6063192;23;20742;-84
2023/12/24 01:26:34;;;;;;;3.80;1.00;;;;;;;11.83;70.56;100245.16;6063380;23;20210;-84
2023/12/24 01:29:03;;;;;;;3.57;0.90;;;;;;;11.85;70.22;100243.19;6063367;23;20664;-83
2023/12/24 01:31:31;;;;;;;2.37;1.00;;;;;;;11.81;70.25;100268.41;6063640;23;20217;-85
2023/12/24 01:33:59;;;;;;;4.40;1.10;;;;;;;11.75;70.65;100243.31;6062607;23;20179;-82
2023/12/24 01:36:27;;;;;;;1.60;0.90;;;;;;;11.79;70.73;100238.50;6064544;23;20526;-82
2023/12/24 01:38:55;;;;;;;3.80;1.17;;;;;;;11.77;70.81;100232.53;6062357;23;20183;-82
2023/12/24 01:41:23;;;;;;;3.63;0.90;;;;;;;11.79;70.90;100233.19;6063188;23;20188;-82
2023/12/24 01:43:50;;;;;;;1.53;0.90;;;;;;;11.77;71.24;100230.72;6061948;23;20294;-83
2023/12/24 01:46:22;;;;;;;2.07;0.80;;;;;;;11.70;71.27;100233.13;6063528;23;20253;-84
2023/12/24 01:48:52;;;;;;;3.27;0.90;;;;;;;11.69;71.47;100226.19;6064179;23;20175;-84
2023/12/24 01:51:22;;;;;;;3.73;0.77;;;;;;;11.62;72.04;100211.03;6062766;23;20215;-85
2023/12/24 01:53:51;;;;;;;3.20;0.93;;;;;;;11.54;72.20;100209.19;6062026;23;20187;-84
2023/12/24 01:56:22;;;;;;;2.83;0.73;;;;;;;11.50;72.31;100230.91;6065474;23;20788;-82
2023/12/24 01:58:51;;;;;;;1.90;0.57;;;;;;;11.46;72.47;100227.72;6064659;23;20188;-84
2023/12/24 02:01:21;;;;;;;2.00;0.60;;;;;;;11.44;72.32;100218.25;6063096;23;20195;-81
2023/12/24 02:03:49;;;;;;;3.77;0.90;;;;;;;11.45;72.42;100231.38;6063512;23;20195;-83
2023/12/24 02:06:18;;;;;;;2.30;0.67;;;;;;;11.42;72.71;100242.34;6061950;23;20184;-85
2023/12/24 02:08:46;;;;;;;2.37;0.77;;;;;;;11.47;72.45;100248.00;6062412;23;20188;-82
2023/12/24 02:11:16;;;;;;;2.27;0.70;;;;;;;11.50;72.49;100244.19;6062522;23;20263;-84
2023/12/24 02:13:45;;;;;;;2.67;0.90;;;;;;;11.54;72.79;100270.25;6061085;23;20187;-86
2023/12/24 02:16:18;;;;;;;2.37;0.67;;;;;;;11.52;72.78;100264.25;6063059;23;20183;-83
2023/12/24 02:18:48;;;;;;;1.50;0.50;;;;;;;11.55;72.72;100265.78;6062405;23;20627;-84
2023/12/24 02:21:17;;;;;;;1.73;0.50;;;;;;;11.50;73.19;100260.97;6062319;23;20203;-86
2023/12/24 02:23:45;;;;;;;0.77;0.47;;;;;;;11.47;74.01;100274.53;6060767;23;20684;-81
2023/12/24 02:26:24;;;;;;;2.50;0.90;;;;;;;11.45;74.44;100281.81;6061346;23;20191;-86
2023/12/24 02:28:57;;;;;;;2.60;0.73;;;;;;;11.40;74.78;100283.31;6061466;23;20766;-84
2023/12/24 02:31:31;;;;;;;2.93;0.60;;;;;;;11.35;74.57;100289.06;6063648;23;20174;-86
2023/12/24 02:34:02;;;;;;;1.20;0.57;;;;;;;11.41;74.53;100306.22;6061969;23;20884;-82
2023/12/24 02:36:34;;;;;;;2.73;0.73;;;;;;;11.41;73.81;100299.06;6062832;23;20202;-87
2023/12/24 02:39:02;;;;;;;2.97;0.70;;;;;;;11.41;74.04;100301.72;6062246;23;20215;-85
2023/12/24 02:41:30;;;;;;;1.77;0.70;;;;;;;11.43;74.07;100307.72;6062867;23;20207;-81
2023/12/24 02:43:57;;;;;;;1.20;0.70;;;;;;;11.49;74.21;100323.00;6062164;23;20179;-84
2023/12/24 02:46:25;;;;;;;4.23;0.80;;;;;;;11.48;74.06;100300.09;6062966;23;20188;-84
2023/12/24 02:48:53;;;;;;;1.73;0.90;;;;;;;11.48;74.53;100289.47;6062594;23;20187;-85
2023/12/24 02:51:21;;;;;;;3.33;0.57;;;;;;;11.47;75.01;100287.81;6062487;23;20187;-85
2023/12/24 02:53:51;;;;;;;1.67;0.50;;;;;;;11.45;75.50;100291.59;6062087;23;20225;-85
2023/12/24 02:56:19;;;;;;;4.17;1.10;;;;;;;11.48;75.80;100293.97;6063912;23;20247;-85
2023/12/24 02:58:47;;;;;;;2.70;1.17;;;;;;;11.49;75.79;100279.69;6065160;23;20193;-86
2023/12/24 03:01:14;;;;;;;2.67;0.80;;;;;;;11.50;75.76;100282.19;6064466;23;20211;-86
2023/12/24 03:03:42;;;;;;;2.13;0.60;;;;;;;11.49;75.32;100275.22;6063917;23;20553;-83
2023/12/24 03:06:10;;;;;;;1.53;0.70;;;;;;;11.49;75.45;100267.25;6063803;23;20187;-84
2023/12/24 03:08:38;;;;;;;1.03;0.60;;;;;;;11.46;75.15;100248.97;6062894;23;20190;-83
2023/12/24 03:11:08;;;;;;;2.97;1.30;;;;;;;11.44;74.93;100250.94;6065055;23;20245;-83
2023/12/24 03:13:36;;;;;;;1.53;0.67;;;;;;;11.46;74.64;100251.63;6062748;23;20191;-85
2023/12/24 03:16:04;;;;;;;3.00;1.03;;;;;;;11.49;74.28;100238.03;6064004;23;20242;-86
2023/12/24 03:18:32;;;;;;;3.20;0.97;;;;;;;11.46;73.69;100253.44;6063052;23;20199;-84
2023/12/24 03:21:00;;;;;;;2.13;0.83;;;;;;;11.48;73.62;100254.97;6063821;23;20302;-84
2023/12/24 03:23:28;;;;;;;4.23;0.90;;;;;;;11.51;73.24;100256.47;6063140;23;20826;-84
2023/12/24 03:25:56;;;;;;;2.10;0.83;;;;;;;11.52;73.25;100248.31;6064118;23;20183;-86
2023/12/24 03:28:25;;;;;;;1.73;0.93;;;;;;;11.56;72.99;100228.44;6064515;23;20196;-83
2023/12/24 03:30:53;;;;;;;1.90;0.80;;;;;;;11.55;73.04;100232.09;6063927;23;20250;-86
2023/12/24 03:33:22;;;;;;;2.80;1.37;;;;;;;11.55;72.84;100221.47;6063026;23;20931;-86
2023/12/24 03:35:50;;;;;;;2.30;0.77;;;;;;;11.52;72.80;100221.78;6063730;23;20192;-83
2023/12/24 03:38:18;;;;;;;2.20;1.00;;;;;;;11.52;72.73;100218.31;6065104;23;20226;-85
2023/12/24 03:40:45;;;;;;;2.27;1.03;;;;;;;11.52;72.67;100205.84;6063124;23;20274;-83
2023/12/24 03:43:13;;;;;;;1.27;0.87;;;;;;;11.52;72.43;100205.84;6064286;23;20187;-82
2023/12/24 03:45:42;;;;;;;2.80;1.00;;;;;;;11.53;72.59;100206.69;6063008;23;20187;-85
2023/12/24 03:48:11;;;;;;;2.40;0.97;;;;;;;11.52;72.50;100211.16;6062868;23;20566;-84
2023/12/24 03:50:40;;;;;;;2.03;0.80;;;;;;;11.49;72.69;100210.66;6064409;23;20579;-85
2023/12/24 03:53:07;;;;;;;2.33;0.80;;;;;;;11.48;72.73;100209.00;6063960;23;20206;-85
2023/12/24 03:55:35;;;;;;;1.17;0.70;;;;;;;11.40;72.94;100199.19;6063796;23;20675;-81
2023/12/24 03:58:03;;;;;;;1.57;0.77;;;;;;;11.37;73.35;100199.47;6065304;23;20527;-83
2023/12/24 04:00:31;;;;;;;1.30;0.50;;;;;;;11.37;73.58;100185.38;6064140;23;20262;-83
2023/12/24 04:03:00;;;;;;;1.67;0.90;;;;;;;11.32;73.55;100162.81;6065384;23;20176;-78
2023/12/24 04:05:28;;;;;;;3.63;0.73;;;;;;;11.32;73.56;100169.94;6063145;23;20198;-82
2023/12/24 04:07:56;;;;;;;1.63;0.70;;;;;;;11.28;73.58;100147.34;6064201;23;20192;-85
2023/12/24 04:10:24;;;;;;;1.60;0.50;;;;;;;11.18;74.04;100157.25;6063165;23;20242;-82
2023/12/24 04:12:52;;;;;;;1.37;0.63;;;;;;;11.17;74.37;100166.25;6063967;23;20862;-84
2023/12/24 04:15:20;;;;;;;1.07;0.57;;;;;;;11.20;73.98;100168.56;6063839;23;20261;-83
2023/12/24 04:17:48;;;;;;;1.97;0.53;;;;;;;11.22;74.02;100162.09;6066627;23;20184;-80
2023/12/24 04:20:17;;;;;;;1.53;0.60;;;;;;;11.26;73.66;100160.78;6065404;23;20258;-84
2023/12/24 04:22:45;;;;;;;1.40;0.50;;;;;;;11.20;74.06;100176.53;6065404;23;20192;-83
2023/12/24 04:25:13;;;;;;;1.47;0.60;;;;;;;11.15;74.20;100160.25;6065333;23;20189;-84
2023/12/24 04:27:41;;;;;;;1.03;0.60;;;;;;;11.13;74.50;100156.91;6065689;23;20203;-84
2023/12/24 04:30:10;;;;;;;1.00;0.40;;;;;;;11.16;74.49;100156.63;6066817;23;20218;-83
2023/12/24 04:32:37;;;;;;;1.30;0.60;;;;;;;11.18;74.87;100149.31;6064745;23;20183;-85
2023/12/24 04:35:07;;;;;;;1.30;0.70;;;;;;;11.19;74.61;100158.94;6064221;23;20192;-84
2023/12/24 04:37:36;;;;;;;2.00;0.60;;;;;;;11.18;74.56;100141.34;6065168;23;20184;-85
2023/12/24 04:40:05;;;;;;;0.70;0.60;;;;;;;11.21;74.62;100136.56;6064887;23;20245;-82
2023/12/24 04:42:33;;;;;;;1.23;0.40;;;;;;;11.20;74.65;100134.06;6067533;23;20904;-86
2023/12/24 04:45:00;;;;;;;0.83;0.43;;;;;;;11.18;75.12;100141.34;6065074;23;20268;-81
2023/12/24 04:47:28;;;;;;;1.23;0.40;;;;;;;11.22;74.78;100142.69;6065651;23;20183;-82
2023/12/24 04:49:57;;;;;;;1.20;0.70;;;;;;;11.21;75.04;100143.69;6064366;23;20187;-85
2023/12/24 04:52:24;;;;;;;0.53;0.40;;;;;;;11.17;75.14;100137.06;6065443;23;20206;-83
2023/12/24 04:54:53;;;;;;;2.83;0.40;;;;;;;11.20;75.10;100158.78;6065256;23;20603;-78
2023/12/24 04:57:21;;;;;;;0.73;0.43;;;;;;;11.16;75.19;100148.66;6066864;23;20243;-83
2023/12/24 04:59:49;;;;;;;1.83;0.50;;;;;;;11.11;75.57;100146.47;6065129;23;20191;-84
2023/12/24 05:02:17;;;;;;;1.30;0.50;;;;;;;11.11;75.79;100149.13;6066977;23;20207;-86
2023/12/24 05:04:45;;;;;;;0.50;0.40;;;;;;;11.13;75.71;100136.53;6071219;23;20194;-80
2023/12/24 05:07:12;;;;;;;1.10;0.40;;;;;;;11.12;75.95;100149.94;6071281;23;20235;-78
2023/12/24 05:09:40;;;;;;;0.93;0.40;;;;;;;11.17;75.44;100134.41;6073966;23;20860;-82
2023/12/24 05:12:13;;;;;;;0.73;0.40;;;;;;;11.20;75.58;100149.97;6070839;23;20182;-80
2023/12/24 05:14:41;;;;;;;0.90;0.40;;;;;;;11.19;75.59;100145.66;6072955;23;20640;-84
2023/12/24 05:17:09;;;;;;;0.87;0.33;;;;;;;11.21;76.02;100138.38;6073698;23;20194;-84
2023/12/24 05:19:37;;;;;;;2.10;0.40;;;;;;;11.17;75.92;100137.84;6070028;23;20199;-79
2023/12/24 05:22:04;;;;;;;0.60;0.30;;;;;;;11.11;76.28;100135.00;6073671;23;20285;-81
2023/12/24 05:24:32;;;;;;;2.87;0.40;;;;;;;11.17;76.30;100135.19;6067480;23;20212;-83
2023/12/24 05:27:00;;;;;;;0.93;0.30;;;;;;;11.17;76.35;100129.09;6065896;23;20202;-82
2023/12/24 05:29:29;;;;;;;0.70;0.30;;;;;;;11.20;76.17;100137.53;6066511;23;20175;-87
2023/12/24 05:31:57;;;;;;;0.63;0.20;;;;;;;11.19;76.46;100129.75;6065555;23;20219;-84
2023/12/24 05:34:25;;;;;;;1.17;0.30;;;;;;;11.21;76.64;100127.75;6066347;23;20184;-82
2023/12/24 05:36:53;;;;;;;0.30;0.30;;;;;;;11.25;76.45;100134.44;6069776;23;20198;-81
2023/12/24 05:39:21;;;;;;;0.67;0.37;;;;;;;11.22;76.46;100132.09;6070325;23;20583;-82
2023/12/24 05:41:49;;;;;;;1.37;0.50;;;;;;;11.19;76.38;100130.56;6067907;23;20576;-87
2023/12/24 05:44:17;;;;;;;1.50;0.50;;;;;;;11.21;76.36;100125.09;6069412;23;20212;-82
2023/12/24 05:46:51;;;;;;;1.17;0.43;;;;;;;11.21;76.88;100117.16;6073637;23;20183;-86
2023/12/24 05:49:19;;;;;;;0.70;0.40;;;;;;;11.20;76.91;100111.00;6076473;23;20176;-85
2023/12/24 05:51:47;;;;;;;0.50;0.30;;;;;;;11.18;77.02;100117.44;6075023;23;20194;-86
2023/12/24 05:54:15;;;;;;;0.40;0.30;;;;;;;11.18;77.43;100125.41;6072515;23;20188;-84
2023/12/24 05:56:42;;;;;;;0.47;0.30;;;;;;;11.16;77.94;100116.81;6072801;23;20407;-80
2023/12/24 05:59:10;;;;;;;1.33;0.30;;;;;;;11.17;78.73;100098.03;6070688;23;20187;-86
2023/12/24 06:01:38;;;;;;;0.33;0.30;;;;;;;11.16;78.85;100099.06;6070566;23;20445;-87
2023/12/24 06:04:07;;;;;;;0.50;0.40;;;;;;;11.17;79.91;100089.28;6064721;23;20590;-83
2023/12/24 06:06:40;;;;;;;0.50;0.40;;;;;;;11.03;80.98;100090.72;6066149;23;20188;-85
2023/12/24 06:09:08;;;;;;;1.17;0.40;;;;;;;11.05;81.61;100086.09;6065067;23;20179;-78
2023/12/24 06:11:36;;;;;;;0.80;0.50;;;;;;;11.04;81.38;100088.88;6064932;23;20258;-85
2023/12/24 06:14:04;;;;;;;1.67;0.70;;;;;;;11.05;81.52;100072.81;6062625;23;20195;-84
2023/12/24 06:16:32;;;;;;;1.97;0.50;;;;;;;11.07;81.65;100059.41;6064801;23;20275;-83
2023/12/24 06:19:00;;;;;;;0.50;0.30;;;;;;;11.01;81.77;100079.41;6063779;23;20218;-84
2023/12/24 06:21:29;;;;;;;0.77;0.57;;;;;;;11.01;82.30;100071.47;6067917;23;20194;-85
2023/12/24 06:24:00;;;;;;;2.37;0.57;;;;;;;11.05;82.52;100085.25;6064247;23;20203;-88
2023/12/24 06:26:29;;;;;;;0.87;0.40;;;;;;;11.10;82.47;100096.19;6063371;23;20175;-83
2023/12/24 06:28:57;;;;;;;0.73;0.40;;;;;;;11.07;82.74;100084.09;6063528;23;20222;-86
2023/12/24 06:31:24;;;;;;;0.77;0.50;;;;;;;11.04;83.12;100072.97;6063133;23;20194;-84
2023/12/24 06:33:52;;;;;;;2.20;0.70;;;;;;;11.07;83.32;100080.63;6062938;23;20197;-83
2023/12/24 06:36:20;;;;;;;0.40;0.40;;;;;;;11.11;82.90;100073.97;6073380;23;20242;-80
2023/12/24 06:38:50;;;;;;;0.90;0.30;;;;;;;11.07;82.79;100068.19;6075329;23;20893;-84
2023/12/24 06:41:18;;;;;;;0.50;0.30;;;;;;;11.05;82.87;100079.94;6076907;23;20194;-82
2023/12/24 06:43:45;;;;;;;0.33;0.30;;;;;;;11.07;82.62;100077.97;6079756;23;20217;-83
2023/12/24 06:46:13;;;;;;;0.90;0.40;;;;;;;11.10;81.74;100082.94;6078610;23;20190;-82
2023/12/24 06:48:41;;;;;;;1.00;0.40;;;;;;;11.07;81.98;100083.28;6083325;23;20194;-84
2023/12/24 06:51:09;;;;;;;0.70;0.30;;;;;;;11.10;82.15;100088.25;6082107;23;20588;-79
2023/12/24 06:53:37;;;;;;;0.57;0.30;;;;;;;11.14;81.89;100089.59;6081967;23;20175;-80
2023/12/24 06:56:06;;;;;;;0.33;0.30;;;;;;;11.16;81.76;100095.56;6082699;23;20183;-80
2023/12/24 06:58:34;;;;;;;1.00;0.30;;;;;;;11.19;81.55;100084.63;6081521;23;20563;-82
2023/12/24 07:01:02;;;;;;;0.20;0.20;;;;;;;11.18;81.46;100086.44;6074612;23;20498;-72
2023/12/24 07:03:30;;;;;;;0.40;0.30;;;;;;;11.19;81.66;100095.25;6056656;23;20234;-76
2023/12/24 07:05:59;;;;;;;2.40;0.30;;;;;;;11.19;81.71;100076.66;6057615;23;20273;-71
2023/12/24 07:08:29;;;;;;;0.53;0.37;;;;;;;11.20;82.13;100088.94;6059069;23;20214;-73
2023/12/24 07:10:57;;;;;;;0.57;0.30;;;;;;;11.18;82.29;100088.25;6058382;23;20190;-71
2023/12/24 07:13:26;;;;;;;0.73;0.50;;;;;;;11.21;82.02;100078.16;6056558;23;20179;-70
2023/12/24 07:15:54;;;;;;;0.30;0.23;;;;;;;11.26;81.89;100085.63;6057394;23;20195;-71
2023/12/24 07:18:22;;;;;;;0.50;0.30;;;;;;;11.22;81.45;100079.00;6057370;23;20646;-72
2023/12/24 07:20:50;;;;;;;0.80;0.40;;;;;;;11.29;81.43;100090.63;6059101;23;20267;-71
2023/12/24 07:23:18;;;;;;;0.20;0.20;;;;;;;11.32;80.38;100083.19;6056900;23;20219;-70
2023/12/24 07:25:46;;;;;;;0.70;0.30;;;;;;;11.31;80.38;100091.31;6057068;23;20293;-71
2023/12/24 07:28:14;;;;;;;0.50;0.30;;;;;;;11.36;80.45;100102.25;6115561;23;20266;-75
2023/12/24 07:30:43;;;;;;;0.77;0.27;;;;;;;11.39;80.14;100104.59;6176651;23;20251;-71
2023/12/24 07:33:12;;;;;;;0.50;0.33;;;;;;;11.43;80.13;100097.16;6173891;23;20245;-71
2023/12/24 07:35:57;;;;;;;1.13;0.40;;;;;;;11.39;80.37;100098.44;6174081;23;20215;-68
2023/12/24 07:39:51;;;;;;;;;;;;;;;;;;;;;
2023/12/24 07:42:38;;;;;;;0.87;0.30;;;;;;;11.37;81.17;100095.94;6150824;23;20207;-71
2023/12/24 07:45:07;;;;;;;0.50;0.37;;;;;;;11.36;81.44;100104.91;6175820;23;20270;-73
2023/12/24 07:47:36;;;;;;;3.57;0.50;;;;;;;11.37;81.60;100095.13;6176984;23;20185;-70
2023/12/24 07:50:07;;;;;;;0.50;0.30;;;;;;;11.40;81.47;100098.28;6177714;23;20192;-70
2023/12/24 07:52:35;;;;;;;0.37;0.23;;;;;;;11.35;81.29;100108.56;6177012;23;20177;-71
2023/12/24 07:55:04;;;;;;;0.23;0.23;;;;;;;11.37;81.32;100106.56;6176377;23;20216;-68
2023/12/24 07:57:31;;;;;;;0.60;0.30;;;;;;;11.36;81.41;100112.03;6177617;23;20242;-70
2023/12/24 08:00:00;;;;;;;0.60;0.30;;;;;;;11.36;81.20;100114.69;6177258;23;20181;-69
2023/12/24 08:02:28;;;;;;;1.10;0.40;;;;;;;11.32;81.39;100119.50;6178000;23;20198;-68
2023/12/24 08:04:57;;;;;;;0.83;0.27;;;;;;;11.39;81.07;100119.69;6177509;23;20189;-65
2023/12/24 08:07:25;;;;;;;1.33;0.30;;;;;;;11.45;80.83;100125.19;6178098;23;20199;-70
2023/12/24 08:09:54;;;;;;;0.80;0.43;;;;;;;11.49;80.58;100123.03;6178359;23;20190;-67
2023/12/24 08:12:23;;;;;;;0.80;0.33;;;;;;;11.47;80.41;100117.88;6177567;23;20220;-71
2023/12/24 08:14:51;;;;;;;0.40;0.20;;;;;;;11.43;80.68;100116.56;6176490;23;20280;-66
2023/12/24 08:17:19;;;;;;;0.50;0.33;;;;;;;11.46;80.81;100112.72;6177072;23;20209;-69
2023/12/24 08:19:47;;;;;;;0.40;0.30;;;;;;;11.45;80.37;100114.56;6177127;23;20183;-68
2023/12/24 08:22:16;;;;;;;0.30;0.20;;;;;;;11.44;80.83;100128.81;6177194;23;20208;-71
2023/12/24 08:24:48;;;;;;;0.50;0.30;;;;;;;11.45;81.10;100117.22;6175795;23;20220;-67
2023/12/24 08:27:16;;;;;;;0.40;0.30;;;;;;;11.47;81.17;100115.22;6176422;23;20196;-65
2023/12/24 08:29:44;;;;;;;0.57;0.20;;;;;;;11.51;81.64;100129.03;6176913;23;20656;-67
2023/12/24 08:32:12;;;;;;;0.10;0.10;;;;;;;11.51;81.70;100129.84;6178626;23;20652;-70
2023/12/24 08:34:40;;;;;;;1.37;0.40;;;;;;;11.48;82.15;100132.81;6179023;23;20251;-69
2023/12/24 08:37:09;;;;;;;0.30;0.20;;;;;;;11.49;82.16;100129.19;6181567;23;20186;-67
2023/12/24 08:39:41;;;;;;;0.73;0.40;;;;;;;11.52;81.92;100120.88;6180516;23;20177;-70
2023/12/24 08:42:09;;;;;;;0.40;0.20;;;;;;;11.55;81.44;100120.56;6183181;23;20177;-68
2023/12/24 08:44:49;;;;;;;0.60;0.30;;;;;;;11.50;81.70;100117.56;6182660;23;20540;-69
2023/12/24 08:47:27;;;;;;;;;;;;;;;;;;;;;
2023/12/24 08:49:57;;;;;;;0.40;0.30;;;;;;;11.61;81.29;100111.94;6182580;23;20223;-71
2023/12/24 08:52:28;;;;;;;0.40;0.30;;;;;;;11.72;80.46;100110.78;6182527;23;20181;-66
2023/12/24 08:54:58;;;;;;;0.50;0.30;;;;;;;11.65;79.99;100110.63;6180784;23;20188;-70
2023/12/24 08:57:26;;;;;;;0.33;0.30;;;;;;;11.65;80.33;100118.59;6180348;23;20239;-66
2023/12/24 09:00:05;;;;;;;0.50;0.40;;;;;;;11.73;80.03;100119.59;6180786;23;20672;-70
2023/12/24 09:02:42;;;;;;;0.33;0.30;;;;;;;11.70;79.88;100113.59;6179526;23;20165;-71
2023/12/24 09:05:27;;;;;;;1.13;0.30;;;;;;;11.82;79.49;100126.59;6175647;23;20192;-68
2023/12/24 09:07:58;;;;;;;0.97;0.30;;;;;;;11.84;79.10;100114.00;6177876;23;20592;-72
2023/12/24 09:10:31;;;;;;;0.40;0.30;;;;;;;11.85;78.96;100126.28;6179691;23;20820;-68
2023/12/24 09:12:59;;;;;;;0.67;0.30;;;;;;;11.87;79.06;100117.16;6180030;23;20176;-69
2023/12/24 09:15:27;;;;;;;0.30;0.30;;;;;;;11.90;78.65;100123.97;6177648;23;20850;-69
2023/12/24 09:17:55;;;;;;;0.60;0.40;;;;;;;11.92;78.67;100119.31;6177332;23;20202;-68
2023/12/24 09:20:23;;;;;;;0.47;0.30;;;;;;;11.92;78.88;100121.97;6177528;23;20184;-70
2023/12/24 09:22:52;;;;;;;0.40;0.30;;;;;;;11.91;78.26;100122.97;6177609;23;20412;-70
2023/12/24 09:25:34;;;;;;;;;;;;;;;;;;;;;
2023/12/24 09:28:54;;;;;;;0.47;0.30;;;;;;;11.91;78.57;100115.00;6169925;23;20249;-70
2023/12/24 09:38:52;;;;;;;0.87;0.40;;;;;;;11.89;78.48;100117.81;6170456;23;20184;-71
2023/12/24 09:41:20;;;;;;;0.40;0.30;;;;;;;11.89;78.74;100109.84;6181107;23;20173;-72
2023/12/24 09:56:00;;;;;;;0.60;0.30;;;;;;;11.91;80.23;100120.31;6114682;23;20256;-70
2023/12/24 10:06:09;;;;;;;1.40;0.60;;;;;;;11.91;79.72;100105.19;6130196;23;20196;-71
2023/12/24 10:08:39;;;;;;;0.40;0.23;;;;;;;11.91;79.55;100107.03;6178329;23;20173;-71
2023/12/24 10:14:09;;;;;;;2.93;0.23;;;;;;;11.97;79.82;100085.94;6167667;23;20632;-71
2023/12/24 10:16:44;;;;;;;0.93;0.30;;;;;;;12.03;79.56;100079.97;6178827;23;20185;-73
2023/12/24 10:19:34;;;;;;;0.30;0.20;;;;;;;12.10;78.39;100076.63;6176263;23;20271;-70
2023/12/24 10:22:07;;;;;;;0.20;0.20;;;;;;;12.18;78.13;100077.47;6176372;23;20173;-67
2023/12/24 10:24:39;;;;;;;0.20;0.10;;;;;;;12.40;77.33;100083.91;6175875;23;20212;-70
2023/12/24 10:27:34;;;;;;;0.50;0.30;;;;;;;12.55;76.41;100068.91;6176884;23;20231;-71
2023/12/24 10:30:14;;;;;;;0.20;0.20;;;;;;;12.79;75.21;100071.50;6176562;23;20176;-69
2023/12/24 10:36:24;;;;;;;0.43;0.20;;;;;;;13.31;72.69;100067.44;6084576;23;20195;-71
2023/12/24 10:38:59;;;;;;;1.00;0.20;;;;;;;13.32;71.74;100074.44;6105592;23;20880;-69
2023/12/24 10:42:03;;;;;;;1.10;0.23;;;;;;;13.77;70.91;100069.16;6174160;23;20915;-69
2023/12/24 10:44:39;;;;;;;0.60;0.40;;;;;;;14.26;68.39;100063.38;6167988;23;20211;-73
2023/12/24 10:47:24;;;;;;;1.50;0.30;;;;;;;14.05;68.00;100063.25;6176549;23;20179;-72
2023/12/24 10:49:56;;;;;;;0.57;0.20;;;;;;;14.01;68.93;100060.09;6175952;23;20280;-72
2023/12/24 10:52:31;;;;;;;0.60;0.23;;;;;;;13.97;68.63;100056.16;6176868;23;20176;-73
2023/12/24 10:55:26;;;;;;;2.53;0.50;;;;;;;13.94;69.25;100046.69;6176539;23;20505;-68
2023/12/24 10:58:05;;;;;;;0.27;0.10;;;;;;;13.81;69.24;100043.78;6176402;23;20259;-73
2023/12/24 11:00:37;;;;;;;0.50;0.20;;;;;;;13.79;69.04;100048.47;6176407;23;20255;-69
2023/12/24 11:03:05;;;;;;;0.10;0.10;;;;;;;13.59;69.46;100055.28;6176435;23;20173;-66
2023/12/24 11:05:49;;;;;;;0.47;0.20;;;;;;;13.33;70.70;100060.97;6176748;23;20224;-71
2023/12/24 11:08:30;;;;;;;0.47;0.20;;;;;;;13.14;71.21;100050.75;6176665;23;20189;-67
2023/12/24 11:11:01;;;;;;;0.20;0.20;;;;;;;13.05;72.02;100059.75;6176994;23;20609;-71
2023/12/24 11:13:51;;;;;;;0.40;0.10;;;;;;;13.00;72.70;100054.94;6175092;23;20185;-70
2023/12/24 11:16:45;;;;;;;0.10;0.10;;;;;;;12.92;73.24;100051.50;6178550;23;20176;-68
2023/12/24 11:19:25;;;;;;;0.13;0.10;;;;;;;12.92;73.39;100060.31;6152509;23;20217;-68
2023/12/24 11:22:12;;;;;;;0.37;0.10;;;;;;;12.81;73.98;100044.72;6177825;23;20595;-69
2023/12/24 11:24:44;;;;;;;0.30;0.30;;;;;;;12.78;74.27;100050.38;6176575;23;20209;-67
2023/12/24 11:27:21;;;;;;;0.53;0.20;;;;;;;12.63;75.32;100049.44;6178070;23;20283;-69
2023/12/24 11:29:52;;;;;;;0.20;0.20;;;;;;;12.63;75.46;100033.47;6179116;23;20194;-69
2023/12/24 11:32:38;;;;;;;0.47;0.20;;;;;;;12.76;74.73;100037.25;6178080;23;20178;-71
2023/12/24 11:35:08;;;;;;;0.23;0.10;;;;;;;12.72;75.10;100035.13;6177369;23;20213;-68
2023/12/24 11:37:39;;;;;;;1.37;0.20;;;;;;;12.68;75.24;100029.28;6177254;23;20258;-71
2023/12/24 11:40:20;;;;;;;0.00;0.00;;;;;;;12.67;75.14;100022.31;6178355;23;20199;-72
2023/12/24 11:42:52;;;;;;;0.37;0.10;;;;;;;12.65;75.79;100031.50;6177418;23;20243;-70
2023/12/24 11:45:24;;;;;;;1.13;0.20;;;;;;;12.55;75.94;100034.34;6176188;23;20219;-66
2023/12/24 11:47:55;;;;;;;0.77;0.10;;;;;;;12.58;75.69;100027.84;6177527;23;20181;-70
2023/12/24 11:50:25;;;;;;;1.30;0.20;;;;;;;12.56;75.67;100040.50;6177085;23;20204;-67
2023/12/24 11:52:57;;;;;;;0.17;0.10;;;;;;;12.58;75.70;100017.19;6176384;23;20702;-71
